Skip Navigation Links Skip Navigation Links

Current Weather

Sheboygan County Memorial, Sheboygan, Wis.

For information only: do not use for flight planning or navigation.
Latest weather
Observation time Wednesday, October 16, 2019 11:53 PM CDT
Local time Thursday, October 17, 2019 12:51 AM CDT
Flight conditions Visual Meteorological Conditions
Winds
Wind direction West-Northwest (300°)
Wind speed 5 mph
Visibility 10 mi.
Sky condition
Ceiling unlimited
Sky clear
Temperature 40°F
Dewpoint 33°F
Altimeter 30.00 in.Hg
Derived measurements
Relative humidity 76%
Wind chill 37°F
Density altitude -523 ft.
Sea-level pressure 30.01 in.Hg
Remarks
Fully automated report.
Automated weather observing station with precipitation discriminator.
METAR KSBM 170453Z AUTO 30004KT 10SM CLR 04/01 A3000 RMK AO2 SLP162 T00440006

Settings

Location code

InnerDrive.Weather 4.0.6770.0 Release CLR 4.0.30319.42000
Copyright ©2018 Inner Drive Technology. All rights reserved. Portions Copyright ©1986-2018 David Braverman.

Find weather

Site navigation


Skip Navigation Links

Place info

Page info

PayPal - The safer, easier way to pay online!

Return home.

Copyright ©2019 Inner Drive Technology. Purveyors of fine, hand-crafted computer software. Page printed 2019-10-17T05:51:45 UTC.